Terminal Aerodrome Forecast
Issued by NWS Mobile, AL

Home | Current Version | Previous Version | Text Only | Print | Product List | Glossary On
Versions: 1 2 3 4 5 6 7 8 9 10 11 12 13 14 15 16 17 18 19 20 21 22 23 24 25 26
000
FTUS44 KMOB 310011 RRA
TAFMOB
TAF
KMOB 310011Z 3100/3124 20008KT P6SM FEW050 SCT080 SCT250
     FM310100 VRB03KT P6SM FEW250
     FM311500 35004KT P6SM FEW250
     FM312000 18007KT P6SM VCTS SCT040CB BKN250=

USA.gov is the U.S. government's official web portal to all federal, state and local government web resources and services.